Marlboro, Canada
Current Conditions -  °F | °C
As of 11:00 AM on Friday 19 Dec 2014 (Local Time) from CYET Reporting Station
Overcast Overcast  
Wind Chill:   Ceiling: 10000
Heat Index: 12°   Visibility: 9mi
Dew Point: 10°   Wind: 5mph
Humidity: 92%   Direction: 280°W
Pressure: 29.62"   Gusts: NA
Location:  53.55°N, 116.77°W
Report Text: CYET 191800Z AUTO 28004KT 9SM OVC100 M11/M12 A2962 RMK SLP096
Loading
Personal Weather Stations






























Interactive Weather Map New forecast layout! Learn more

10-Day Weather Forecast

Advertisements
Track Severe Weather on mobile